createdAt,value
2017-12-26T00:01:27.391Z,7.00
2017-12-26T00:03:54.831Z,7.33
2017-12-26T00:06:22.279Z,7.03
2017-12-26T00:08:50.531Z,6.93
2017-12-26T00:11:17.979Z,7.33
2017-12-26T00:13:45.443Z,7.43
2017-12-26T00:16:12.904Z,7.30
2017-12-26T00:18:40.356Z,7.67
2017-12-26T00:21:07.806Z,8.07
2017-12-26T00:23:36.784Z,6.57
2017-12-26T00:26:04.235Z,7.40
2017-12-26T00:28:31.691Z,7.20
2017-12-26T00:30:59.150Z,7.60
2017-12-26T00:33:27.367Z,7.23
2017-12-26T00:35:55.595Z,7.00
2017-12-26T00:38:23.054Z,7.40
2017-12-26T00:40:50.510Z,8.57
2017-12-26T00:43:17.971Z,7.13
2017-12-26T00:45:45.439Z,7.63
2017-12-26T00:48:12.899Z,7.80
2017-12-26T00:50:40.355Z,6.60
2017-12-26T00:53:07.820Z,8.00
2017-12-26T00:55:36.767Z,7.10
2017-12-26T00:58:04.225Z,6.77
2017-12-26T01:00:31.695Z,7.13
2017-12-26T01:02:59.151Z,7.03
2017-12-26T01:05:27.371Z,6.03
2017-12-26T01:07:55.609Z,6.73
2017-12-26T01:10:23.062Z,7.90
2017-12-26T01:12:50.521Z,7.23
2017-12-26T01:15:17.991Z,6.30
2017-12-26T01:17:45.453Z,6.30
2017-12-26T01:20:12.906Z,6.60
2017-12-26T01:22:40.363Z,5.83
2017-12-26T01:25:07.806Z,6.07
2017-12-26T01:27:36.018Z,6.00
2017-12-26T01:30:04.251Z,5.07
2017-12-26T01:32:31.707Z,6.10
2017-12-26T01:34:59.170Z,6.00
2017-12-26T01:37:26.627Z,6.40
2017-12-26T01:39:54.078Z,5.80
2017-12-26T01:42:21.536Z,6.30
2017-12-26T01:44:49.007Z,5.53
2017-12-26T01:47:16.454Z,5.00
2017-12-26T01:49:43.898Z,4.57
2017-12-26T01:52:11.361Z,4.90
2017-12-26T01:54:38.814Z,5.70
2017-12-26T01:57:06.270Z,5.50
2017-12-26T01:59:33.762Z,6.30
2017-12-26T02:02:01.983Z,5.37
2017-12-26T02:04:29.439Z,5.30
2017-12-26T02:06:56.898Z,6.40
2017-12-26T02:09:25.188Z,5.70
2017-12-26T02:11:52.643Z,6.23
2017-12-26T02:14:20.115Z,7.60
2017-12-26T02:16:47.638Z,6.30
2017-12-26T02:19:15.078Z,7.13
2017-12-26T02:21:42.544Z,6.50
2017-12-26T02:24:09.995Z,6.87
2017-12-26T02:26:37.442Z,6.57
2017-12-26T02:29:04.902Z,6.00
2017-12-26T02:31:32.355Z,7.43
2017-12-26T02:33:59.808Z,7.77
2017-12-26T02:36:28.040Z,7.00
2017-12-26T02:38:55.509Z,7.90
2017-12-26T02:41:23.022Z,6.73
2017-12-26T02:43:50.506Z,8.67
2017-12-26T02:46:17.964Z,7.33
2017-12-26T02:48:45.419Z,7.20
2017-12-26T02:51:12.899Z,7.43
2017-12-26T02:53:40.346Z,8.00
2017-12-26T02:56:07.806Z,8.90
2017-12-26T02:58:35.270Z,9.00
2017-12-26T03:01:02.726Z,9.10
2017-12-26T03:03:30.179Z,8.10
2017-12-26T03:05:57.641Z,8.50
2017-12-26T03:08:25.098Z,9.50
2017-12-26T03:10:52.555Z,10.60
2017-12-26T03:13:20.023Z,9.80
2017-12-26T03:15:48.248Z,9.37
2017-12-26T03:18:15.706Z,9.00
2017-12-26T03:20:43.171Z,9.93
2017-12-26T03:23:10.631Z,9.57
2017-12-26T03:25:38.084Z,9.53
2017-12-26T03:28:05.545Z,8.77
2017-12-26T03:30:33.010Z,8.93
2017-12-26T03:33:00.476Z,9.60
2017-12-26T03:35:27.944Z,8.47
2017-12-26T03:37:55.395Z,9.00
2017-12-26T03:40:22.841Z,9.23
2017-12-26T03:42:50.307Z,9.70
2017-12-26T03:45:17.771Z,9.93
2017-12-26T03:47:45.314Z,9.27
2017-12-26T03:50:12.778Z,11.17
2017-12-26T03:52:40.246Z,10.40
2017-12-26T03:55:07.700Z,9.70
2017-12-26T03:57:35.158Z,9.67
2017-12-26T04:00:03.383Z,8.90
2017-12-26T04:02:30.832Z,9.73
2017-12-26T04:04:58.298Z,10.20
2017-12-26T04:07:25.762Z,10.10
2017-12-26T04:09:53.218Z,10.70
2017-12-26T04:12:20.686Z,10.87
2017-12-26T04:14:48.141Z,9.60
2017-12-26T04:17:15.598Z,8.70
2017-12-26T04:19:43.055Z,8.90
2017-12-26T04:22:10.507Z,9.10
2017-12-26T04:24:37.962Z,9.13
2017-12-26T04:27:05.426Z,8.63
2017-12-26T04:29:32.878Z,8.47
2017-12-26T04:32:00.329Z,9.07
2017-12-26T04:34:27.796Z,9.17
2017-12-26T04:36:55.247Z,7.90
2017-12-26T04:39:22.706Z,8.80
2017-12-26T04:41:50.167Z,7.43
2017-12-26T04:44:17.615Z,7.27
2017-12-26T04:46:45.066Z,7.07
2017-12-26T04:49:12.531Z,7.60
2017-12-26T04:51:39.983Z,6.70
2017-12-26T04:54:07.430Z,7.17
2017-12-26T04:56:34.894Z,7.00
2017-12-26T04:59:02.358Z,4.87
2017-12-26T05:01:29.806Z,6.00
2017-12-26T05:03:57.275Z,5.03
2017-12-26T05:06:24.728Z,4.40
2017-12-26T05:08:52.187Z,2.73
2017-12-26T05:11:19.642Z,2.77
2017-12-26T05:13:47.100Z,2.43
2017-12-26T05:16:14.550Z,1.70
2017-12-26T05:18:42.011Z,1.27
2017-12-26T05:21:09.467Z,2.53
2017-12-26T05:23:36.924Z,1.77
2017-12-26T05:26:04.382Z,1.10
2017-12-26T05:28:31.832Z,1.73
2017-12-26T05:30:59.282Z,1.50
2017-12-26T05:33:26.737Z,1.40
2017-12-26T05:35:54.196Z,1.30
2017-12-26T05:38:21.647Z,1.50
2017-12-26T05:40:49.106Z,1.70
2017-12-26T05:43:16.554Z,1.30
2017-12-26T05:45:44.010Z,0.90
2017-12-26T05:48:11.472Z,1.50
2017-12-26T05:50:38.919Z,1.20
2017-12-26T05:53:06.373Z,1.40
2017-12-26T05:55:33.840Z,1.23
2017-12-26T05:58:01.292Z,1.30
2017-12-26T06:00:28.744Z,1.40
2017-12-26T06:02:56.199Z,1.10
2017-12-26T06:05:23.652Z,1.47
2017-12-26T06:07:51.099Z,1.67
2017-12-26T06:10:18.559Z,1.67
2017-12-26T06:12:46.024Z,2.50
2017-12-26T06:15:13.482Z,2.00
2017-12-26T06:17:40.948Z,1.80
2017-12-26T06:20:08.404Z,1.70
2017-12-26T06:22:35.880Z,1.40
2017-12-26T06:25:03.344Z,1.70
2017-12-26T06:27:30.790Z,1.50
2017-12-26T06:29:58.248Z,1.87
2017-12-26T06:32:25.747Z,1.53
2017-12-26T06:34:53.958Z,1.60
2017-12-26T06:37:21.419Z,1.67
2017-12-26T06:39:48.880Z,1.00
2017-12-26T06:42:16.326Z,0.80
2017-12-26T06:44:43.775Z,1.60
2017-12-26T06:47:11.243Z,1.20
2017-12-26T06:49:38.687Z,1.07
2017-12-26T06:52:06.130Z,1.00
2017-12-26T06:54:33.614Z,1.00
2017-12-26T06:57:01.067Z,0.90
2017-12-26T06:59:28.519Z,1.10
2017-12-26T07:01:55.987Z,0.80
2017-12-26T07:04:23.434Z,1.27
2017-12-26T07:06:50.891Z,1.30
2017-12-26T07:09:18.363Z,0.80
2017-12-26T07:11:45.904Z,1.50
2017-12-26T07:14:13.348Z,0.90
2017-12-26T07:16:40.802Z,1.50
2017-12-26T07:19:08.255Z,1.20
2017-12-26T07:21:41.343Z,1.50
2017-12-26T07:24:08.853Z,2.07
2017-12-26T07:26:36.308Z,1.03
2017-12-26T07:29:03.758Z,1.10
2017-12-26T07:31:31.218Z,3.70
2017-12-26T07:33:58.658Z,1.40
2017-12-26T07:36:26.186Z,1.27
2017-12-26T07:38:53.598Z,1.37
2017-12-26T07:41:21.050Z,1.17
2017-12-26T07:43:48.531Z,1.03
2017-12-26T07:46:15.972Z,1.23
2017-12-26T07:48:43.427Z,1.10
2017-12-26T07:51:10.883Z,1.70
2017-12-26T07:53:38.335Z,1.10
2017-12-26T07:56:05.782Z,1.50
2017-12-26T07:58:33.238Z,1.43
2017-12-26T08:01:00.708Z,1.10
2017-12-26T08:03:28.200Z,0.87
2017-12-26T08:05:56.473Z,1.50
2017-12-26T08:08:24.694Z,0.90
2017-12-26T08:10:52.151Z,1.10
2017-12-26T08:13:19.612Z,1.43
2017-12-26T08:15:47.146Z,1.67
2017-12-26T08:18:14.586Z,1.67
2017-12-26T08:20:42.063Z,1.43
2017-12-26T08:23:09.498Z,1.70
2017-12-26T08:25:37.766Z,1.80
2017-12-26T08:28:06.014Z,1.40
2017-12-26T08:30:33.464Z,1.10
2017-12-26T08:33:00.919Z,1.50
2017-12-26T08:35:28.383Z,1.20
2017-12-26T08:37:55.830Z,0.80
2017-12-26T08:40:23.278Z,1.90
2017-12-26T08:42:50.739Z,1.23
2017-12-26T08:45:18.190Z,1.80
2017-12-26T08:47:45.642Z,1.00
2017-12-26T08:50:13.112Z,1.20
2017-12-26T08:52:40.579Z,1.40
2017-12-26T08:55:08.031Z,1.80
2017-12-26T08:57:35.496Z,1.57
2017-12-26T09:00:02.956Z,1.87
2017-12-26T09:02:30.404Z,1.20
2017-12-26T09:04:57.867Z,1.50
2017-12-26T09:07:25.315Z,1.43
2017-12-26T09:09:52.776Z,1.10
2017-12-26T09:12:20.232Z,1.07
2017-12-26T09:14:47.691Z,1.20
2017-12-26T09:17:15.926Z,1.50
2017-12-26T09:19:43.382Z,1.57
2017-12-26T09:22:10.830Z,1.53
2017-12-26T09:24:38.343Z,1.60
2017-12-26T09:27:05.809Z,1.43
2017-12-26T09:29:34.027Z,1.70
2017-12-26T09:32:01.492Z,2.50
2017-12-26T09:34:28.949Z,1.63
2017-12-26T09:36:56.403Z,1.00
2017-12-26T09:39:23.847Z,1.27
2017-12-26T09:41:51.307Z,1.33
2017-12-26T09:44:18.755Z,1.20
2017-12-26T09:46:46.213Z,1.40
2017-12-26T09:49:13.675Z,1.80
2017-12-26T09:51:41.128Z,1.63
2017-12-26T09:54:08.584Z,2.23
2017-12-26T09:56:36.052Z,1.60
2017-12-26T09:59:03.509Z,1.97
2017-12-26T10:01:30.954Z,2.70
2017-12-26T10:03:58.418Z,1.60
2017-12-26T10:06:25.879Z,2.17
2017-12-26T10:08:53.331Z,1.60
2017-12-26T10:11:20.786Z,1.53
2017-12-26T10:13:48.291Z,1.90
2017-12-26T10:16:15.758Z,1.73
2017-12-26T10:18:43.995Z,2.00
2017-12-26T10:21:11.454Z,2.40
2017-12-26T10:23:38.907Z,1.83
2017-12-26T10:26:06.378Z,1.60
2017-12-26T10:28:33.831Z,2.27
2017-12-26T10:31:01.279Z,1.20
2017-12-26T10:33:28.743Z,1.30
2017-12-26T10:35:56.191Z,1.43
2017-12-26T10:38:23.647Z,1.20
2017-12-26T10:40:51.115Z,1.23
2017-12-26T10:43:18.563Z,1.90
2017-12-26T10:45:46.016Z,1.40
2017-12-26T10:48:13.523Z,0.80
2017-12-26T10:50:41.739Z,3.50
2017-12-26T10:53:09.195Z,0.80
2017-12-26T10:55:36.659Z,1.03
2017-12-26T10:58:04.118Z,1.10
2017-12-26T11:00:31.578Z,1.53
2017-12-26T11:02:59.035Z,1.27
2017-12-26T11:05:26.486Z,1.20
2017-12-26T11:07:53.943Z,1.20
2017-12-26T11:10:21.412Z,1.40
2017-12-26T11:12:48.871Z,2.37
2017-12-26T11:15:16.327Z,1.90
2017-12-26T11:17:43.791Z,1.40
2017-12-26T11:20:11.251Z,1.93
2017-12-26T11:22:38.703Z,1.70
2017-12-26T11:25:06.175Z,1.03
2017-12-26T11:27:34.392Z,1.53
2017-12-26T11:30:01.847Z,1.10
2017-12-26T11:32:29.308Z,1.00
2017-12-26T11:34:56.765Z,1.23
2017-12-26T11:37:24.215Z,1.47
2017-12-26T11:39:51.679Z,1.00
2017-12-26T11:42:19.126Z,1.20
2017-12-26T11:44:46.567Z,1.20
2017-12-26T11:47:14.043Z,1.23
2017-12-26T11:49:41.499Z,1.10
2017-12-26T11:52:08.956Z,1.67
2017-12-26T11:54:36.414Z,1.33
2017-12-26T11:57:03.872Z,1.17
2017-12-26T11:59:31.322Z,1.37
2017-12-26T12:01:58.795Z,1.40
2017-12-26T12:04:26.242Z,1.40
2017-12-26T12:06:53.695Z,2.07
2017-12-26T12:09:21.162Z,1.30
2017-12-26T12:11:48.616Z,1.10
2017-12-26T12:14:16.897Z,1.47
2017-12-26T12:16:44.367Z,1.53
2017-12-26T12:19:11.822Z,1.23
2017-12-26T12:21:39.275Z,1.93
2017-12-26T12:24:06.738Z,1.40
2017-12-26T12:26:34.192Z,1.37
2017-12-26T12:29:01.651Z,1.47
2017-12-26T12:31:29.123Z,1.30
2017-12-26T12:33:56.571Z,2.13
2017-12-26T12:36:24.022Z,1.10
2017-12-26T12:38:51.502Z,1.60
2017-12-26T12:41:18.954Z,1.90
2017-12-26T12:43:46.402Z,1.17
2017-12-26T12:46:13.891Z,1.33
2017-12-26T12:48:42.108Z,1.40
2017-12-26T12:51:09.554Z,1.30
2017-12-26T12:53:37.030Z,2.00
2017-12-26T12:56:04.491Z,1.50
2017-12-26T12:58:31.943Z,1.40
2017-12-26T13:00:59.411Z,1.77
2017-12-26T13:03:26.858Z,1.30
2017-12-26T13:05:54.316Z,1.90
2017-12-26T13:08:21.784Z,1.77
2017-12-26T13:10:49.231Z,1.87
2017-12-26T13:13:16.685Z,1.47
2017-12-26T13:15:44.142Z,1.50
2017-12-26T13:18:11.602Z,1.70
2017-12-26T13:20:39.056Z,1.93
2017-12-26T13:23:06.519Z,1.60
2017-12-26T13:25:33.972Z,1.60
2017-12-26T13:28:01.427Z,1.77
2017-12-26T13:30:28.894Z,2.40
2017-12-26T13:32:56.347Z,1.93
2017-12-26T13:35:23.803Z,1.77
2017-12-26T13:37:51.275Z,2.13
2017-12-26T13:40:18.729Z,1.80
2017-12-26T13:42:46.178Z,2.13
2017-12-26T13:45:13.642Z,1.73
2017-12-26T13:47:41.096Z,1.63
2017-12-26T13:50:08.548Z,1.90
2017-12-26T13:52:36.007Z,1.60
2017-12-26T13:55:03.463Z,1.70
2017-12-26T13:57:30.920Z,2.33
2017-12-26T13:59:58.393Z,1.60
2017-12-26T14:02:25.842Z,1.53
2017-12-26T14:04:53.294Z,1.80
2017-12-26T14:07:20.771Z,2.10
2017-12-26T14:09:48.987Z,1.40
2017-12-26T14:12:16.438Z,2.30
2017-12-26T14:14:43.898Z,1.83
2017-12-26T14:17:11.359Z,1.70
2017-12-26T14:19:38.807Z,3.27
2017-12-26T14:22:06.266Z,2.40
2017-12-26T14:24:33.723Z,1.93
2017-12-26T14:27:01.179Z,2.00
2017-12-26T14:29:28.633Z,2.40
2017-12-26T14:31:56.090Z,2.30
2017-12-26T14:34:23.548Z,2.50
2017-12-26T14:36:51.014Z,2.60
2017-12-26T14:39:18.459Z,3.20
2017-12-26T14:41:45.910Z,3.33
2017-12-26T14:44:13.370Z,2.90
2017-12-26T14:46:40.827Z,3.53
2017-12-26T14:49:08.282Z,3.40
2017-12-26T14:51:35.763Z,2.60
2017-12-26T14:54:03.211Z,2.73
2017-12-26T14:56:30.668Z,3.00
2017-12-26T14:58:58.140Z,2.90
2017-12-26T15:01:25.591Z,3.13
2017-12-26T15:03:53.054Z,3.00
2017-12-26T15:06:20.515Z,2.70
2017-12-26T15:08:47.971Z,2.57
2017-12-26T15:11:15.413Z,1.80
2017-12-26T15:13:42.874Z,2.73
2017-12-26T15:16:10.322Z,2.20
2017-12-26T15:18:37.770Z,2.30
2017-12-26T15:21:05.238Z,2.10
2017-12-26T15:23:32.686Z,1.93
2017-12-26T15:26:00.139Z,2.80
2017-12-26T15:28:27.610Z,3.27
2017-12-26T15:30:55.058Z,2.00
2017-12-26T15:33:22.502Z,3.47
2017-12-26T15:35:49.969Z,2.33
2017-12-26T15:38:18.183Z,2.03
2017-12-26T15:40:45.636Z,2.47
2017-12-26T15:43:13.099Z,1.93
2017-12-26T15:45:40.554Z,2.60
2017-12-26T15:48:07.999Z,2.60
2017-12-26T15:50:35.472Z,2.00
2017-12-26T15:53:03.690Z,2.07
2017-12-26T15:55:31.148Z,2.50
2017-12-26T15:57:58.603Z,2.33
2017-12-26T16:00:26.064Z,2.13
2017-12-26T16:02:53.519Z,1.83
2017-12-26T16:05:20.979Z,2.60
2017-12-26T16:07:48.431Z,2.13
2017-12-26T16:10:15.882Z,2.83
2017-12-26T16:12:43.352Z,2.37
2017-12-26T16:15:10.804Z,1.87
2017-12-26T16:17:38.259Z,2.50
2017-12-26T16:20:05.718Z,1.83
2017-12-26T16:22:33.174Z,3.07
2017-12-26T16:25:00.626Z,2.53
2017-12-26T16:27:28.095Z,2.77
2017-12-26T16:29:55.555Z,2.00
2017-12-26T16:32:23.003Z,2.77
2017-12-26T16:34:50.458Z,3.00
2017-12-26T16:37:17.915Z,3.43
2017-12-26T16:39:45.363Z,2.90
2017-12-26T16:42:12.835Z,2.40
2017-12-26T16:44:40.295Z,2.23
2017-12-26T16:47:07.739Z,2.93
2017-12-26T16:49:35.203Z,2.73
2017-12-26T16:52:02.654Z,5.03
2017-12-26T16:54:30.102Z,2.80
2017-12-26T16:56:57.577Z,3.30
2017-12-26T16:59:25.035Z,3.50
2017-12-26T17:01:52.478Z,3.67
2017-12-26T17:04:19.949Z,4.60
2017-12-26T17:06:47.414Z,3.87
2017-12-26T17:09:14.873Z,4.23
2017-12-26T17:11:42.339Z,4.87
2017-12-26T17:14:09.795Z,3.30
2017-12-26T17:16:38.020Z,3.30
2017-12-26T17:19:05.480Z,3.63
2017-12-26T17:21:32.945Z,4.13
2017-12-26T17:24:00.383Z,4.27
2017-12-26T17:26:27.859Z,4.00
2017-12-26T17:28:55.308Z,3.90
2017-12-26T17:31:22.758Z,3.90
2017-12-26T17:33:50.219Z,3.10
2017-12-26T17:36:17.675Z,2.53
2017-12-26T17:38:45.129Z,3.13
2017-12-26T17:41:12.590Z,2.90
2017-12-26T17:43:40.034Z,4.03
2017-12-26T17:46:07.482Z,3.23
2017-12-26T17:48:35.710Z,3.10
2017-12-26T17:51:03.176Z,3.63
2017-12-26T17:53:30.628Z,3.00
2017-12-26T17:55:58.094Z,3.17
2017-12-26T17:58:25.551Z,3.60
2017-12-26T18:00:53.007Z,3.53
2017-12-26T18:03:20.474Z,2.60
2017-12-26T18:05:47.922Z,3.33
2017-12-26T18:08:15.379Z,3.00
2017-12-26T18:10:42.847Z,3.27
2017-12-26T18:13:10.303Z,3.47
2017-12-26T18:15:37.764Z,3.03
2017-12-26T18:18:05.230Z,3.23
2017-12-26T18:20:33.467Z,3.93
2017-12-26T18:23:00.940Z,3.87
2017-12-26T18:25:28.445Z,3.90
2017-12-26T18:27:55.902Z,4.00
2017-12-26T18:30:23.359Z,3.60
2017-12-26T18:32:50.835Z,3.10
2017-12-26T18:35:18.278Z,4.00
2017-12-26T18:37:45.754Z,4.70
2017-12-26T18:40:13.242Z,3.67
2017-12-26T18:42:40.725Z,3.67
2017-12-26T18:45:08.968Z,4.33
2017-12-26T18:47:36.439Z,4.10
2017-12-26T18:50:03.904Z,4.80
2017-12-26T18:52:32.130Z,4.90
2017-12-26T18:54:59.622Z,4.20
2017-12-26T18:57:27.091Z,6.17
2017-12-26T18:59:54.579Z,5.80
2017-12-26T19:02:22.055Z,4.97
2017-12-26T19:04:49.514Z,4.67
2017-12-26T19:07:16.970Z,5.70
2017-12-26T19:09:44.438Z,5.37
2017-12-26T19:12:11.894Z,5.57
2017-12-26T19:14:39.352Z,4.33
2017-12-26T19:17:06.854Z,4.60
2017-12-26T19:19:35.102Z,4.70
2017-12-26T19:22:02.558Z,4.80
2017-12-26T19:24:30.039Z,4.80
2017-12-26T19:26:58.262Z,3.47
2017-12-26T19:29:25.798Z,3.40
2017-12-26T19:31:53.263Z,4.43
2017-12-26T19:34:20.719Z,3.97
2017-12-26T19:36:48.171Z,3.77
2017-12-26T19:39:15.643Z,3.73
2017-12-26T19:41:43.137Z,3.53
2017-12-26T19:44:10.581Z,3.77
2017-12-26T19:46:38.065Z,3.00
2017-12-26T19:49:06.282Z,3.50
2017-12-26T19:51:33.738Z,3.70
2017-12-26T19:54:01.222Z,3.60
2017-12-26T19:56:28.691Z,3.47
2017-12-26T19:58:56.163Z,4.10
2017-12-26T20:01:23.618Z,4.60
2017-12-26T20:03:51.075Z,3.73
2017-12-26T20:06:19.291Z,3.87
2017-12-26T20:08:46.757Z,4.23
2017-12-26T20:11:14.231Z,3.90
2017-12-26T20:13:41.678Z,4.60
2017-12-26T20:16:09.134Z,4.07
2017-12-26T20:18:36.603Z,2.97
2017-12-26T20:21:04.055Z,4.17
2017-12-26T20:23:31.539Z,3.30
2017-12-26T20:25:58.995Z,3.37
2017-12-26T20:28:32.142Z,4.40
2017-12-26T20:30:59.691Z,5.87
2017-12-26T20:33:27.148Z,3.70
2017-12-26T20:35:54.599Z,3.60
2017-12-26T20:38:22.056Z,3.70
2017-12-26T20:40:49.505Z,4.27
2017-12-26T20:43:16.979Z,4.00
2017-12-26T20:45:44.430Z,4.03
2017-12-26T20:48:11.882Z,4.40
2017-12-26T20:50:39.347Z,4.20
2017-12-26T20:53:06.807Z,3.67
2017-12-26T20:55:34.258Z,5.10
2017-12-26T20:58:01.739Z,4.00
2017-12-26T21:00:29.224Z,4.10
2017-12-26T21:02:56.731Z,3.30
2017-12-26T21:05:24.230Z,4.53
2017-12-26T21:07:51.687Z,4.23
2017-12-26T21:10:19.142Z,4.20
2017-12-26T21:12:46.636Z,3.60
2017-12-26T21:15:14.860Z,4.70
2017-12-26T21:17:42.309Z,4.47
2017-12-26T21:20:09.794Z,4.97
2017-12-26T21:22:37.323Z,7.43
2017-12-26T21:25:04.762Z,8.70
2017-12-26T21:27:32.231Z,8.10
2017-12-26T21:29:59.686Z,5.40
2017-12-26T21:32:27.156Z,3.40
2017-12-26T21:34:54.626Z,4.87
2017-12-26T21:37:22.092Z,4.10
2017-12-26T21:39:49.526Z,4.23
2017-12-26T21:42:17.063Z,6.13
2017-12-26T21:44:44.508Z,6.50
2017-12-26T21:47:11.969Z,8.47
2017-12-26T21:49:39.451Z,8.60
2017-12-26T21:52:06.911Z,7.97
2017-12-26T21:54:34.418Z,8.20
2017-12-26T21:57:02.643Z,7.60
2017-12-26T21:59:30.098Z,5.20
2017-12-26T22:01:57.546Z,3.80
2017-12-26T22:04:25.017Z,3.70
2017-12-26T22:06:52.462Z,3.90
2017-12-26T22:09:19.917Z,3.27
2017-12-26T22:11:47.378Z,3.30
2017-12-26T22:14:14.830Z,3.57
2017-12-26T22:16:42.282Z,3.80
2017-12-26T22:19:09.755Z,3.03
2017-12-26T22:21:37.207Z,3.23
2017-12-26T22:24:04.662Z,4.03
2017-12-26T22:26:32.131Z,3.57
2017-12-26T22:28:59.583Z,3.90
2017-12-26T22:31:27.034Z,3.70
2017-12-26T22:33:54.498Z,3.20
2017-12-26T22:36:21.952Z,4.00
2017-12-26T22:38:49.406Z,3.23
2017-12-26T22:41:16.879Z,3.53
2017-12-26T22:43:44.334Z,3.10
2017-12-26T22:46:11.787Z,3.40
2017-12-26T22:48:39.254Z,3.40
2017-12-26T22:51:06.716Z,3.00
2017-12-26T22:53:34.163Z,3.40
2017-12-26T22:56:01.622Z,4.20
2017-12-26T22:58:29.079Z,4.33
2017-12-26T23:00:56.525Z,3.00
2017-12-26T23:03:23.995Z,5.87
2017-12-26T23:05:51.443Z,4.37
2017-12-26T23:08:18.891Z,4.23
2017-12-26T23:10:46.354Z,4.03
2017-12-26T23:13:13.810Z,4.00
2017-12-26T23:15:47.074Z,4.70
2017-12-26T23:18:21.027Z,3.50
2017-12-26T23:20:54.086Z,4.50
2017-12-26T23:23:27.159Z,3.27
2017-12-26T23:26:00.366Z,3.77
2017-12-26T23:28:33.554Z,3.70
2017-12-26T23:31:06.787Z,3.70
2017-12-26T23:33:40.765Z,4.20
2017-12-26T23:36:13.819Z,3.63
2017-12-26T23:38:46.871Z,3.70
2017-12-26T23:41:20.887Z,3.37
2017-12-26T23:43:54.926Z,4.00
2017-12-26T23:46:28.078Z,3.27
2017-12-26T23:49:02.137Z,2.90
2017-12-26T23:51:35.355Z,3.90
2017-12-26T23:54:08.514Z,3.20
2017-12-26T23:56:41.738Z,2.73
2017-12-26T23:59:15.003Z,3.67
